createdAt,value
2023-11-09T00:02:51.033Z,33.31
2023-11-09T00:07:52.856Z,34.67
2023-11-09T00:12:54.783Z,33.88
2023-11-09T00:17:57.413Z,33.90
2023-11-09T00:22:59.656Z,32.67
2023-11-09T00:28:01.478Z,33.31
2023-11-09T00:33:04.245Z,32.46
2023-11-09T00:38:07.465Z,31.79
2023-11-09T00:43:09.514Z,32.07
2023-11-09T00:48:11.489Z,31.28
2023-11-09T00:53:13.456Z,30.29
2023-11-09T00:58:15.797Z,30.49
2023-11-09T01:03:17.684Z,30.54
2023-11-09T01:08:19.580Z,30.13
2023-11-09T01:13:21.503Z,31.84
2023-11-09T01:18:25.288Z,32.66
2023-11-09T01:23:27.190Z,33.11
2023-11-09T01:28:29.292Z,33.21
2023-11-09T01:33:31.553Z,33.50
2023-11-09T01:38:35.100Z,33.42
2023-11-09T01:43:37.570Z,33.45
2023-11-09T01:48:39.441Z,33.12
2023-11-09T01:53:41.419Z,34.24
2023-11-09T01:58:45.718Z,34.32
2023-11-09T02:03:47.825Z,34.43
2023-11-09T02:09:08.337Z,35.39
2023-11-09T02:14:10.828Z,34.76
2023-11-09T02:19:16.613Z,34.02
2023-11-09T02:24:20.430Z,33.52
2023-11-09T02:29:23.241Z,33.77
2023-11-09T02:34:25.494Z,34.50
2023-11-09T02:39:27.351Z,35.00
2023-11-09T02:44:29.932Z,33.99
2023-11-09T02:49:33.571Z,34.66
2023-11-09T02:54:35.520Z,34.09
2023-11-09T02:59:38.033Z,34.31
2023-11-09T03:04:39.989Z,34.08
2023-11-09T03:09:42.435Z,34.04
2023-11-09T03:14:44.336Z,34.08
2023-11-09T03:19:46.126Z,33.67
2023-11-09T03:24:47.903Z,34.13
2023-11-09T03:29:49.811Z,33.74
2023-11-09T03:34:51.664Z,34.97
2023-11-09T03:39:54.479Z,35.07
2023-11-09T03:44:57.008Z,33.17
2023-11-09T03:49:58.832Z,33.88
2023-11-09T03:55:00.732Z,34.31
2023-11-09T04:00:12.450Z,34.36
2023-11-09T04:05:14.588Z,33.71
2023-11-09T04:10:18.042Z,34.08
2023-11-09T04:15:20.609Z,33.85
2023-11-09T04:20:22.547Z,33.55
2023-11-09T04:25:24.688Z,32.45
2023-11-09T04:30:29.673Z,33.02
2023-11-09T04:35:31.878Z,33.96
2023-11-09T04:40:33.713Z,32.03
2023-11-09T04:45:36.295Z,32.77
2023-11-09T04:50:41.471Z,32.20
2023-11-09T04:55:54.936Z,32.31
2023-11-09T05:01:15.409Z,33.15
2023-11-09T05:06:35.962Z,33.53
2023-11-09T05:11:37.792Z,34.32
2023-11-09T05:16:39.610Z,35.03
2023-11-09T05:21:41.646Z,34.79
2023-11-09T05:26:44.752Z,35.66
2023-11-09T05:31:46.641Z,35.85
2023-11-09T05:36:48.818Z,35.13
2023-11-09T05:41:52.750Z,35.80
2023-11-09T05:46:57.366Z,35.91
2023-11-09T05:51:59.220Z,35.65
2023-11-09T05:57:01.481Z,34.91
2023-11-09T06:02:03.546Z,34.09
2023-11-09T06:07:05.636Z,35.30
2023-11-09T06:12:09.403Z,36.54
2023-11-09T06:17:12.280Z,37.02
2023-11-09T06:22:14.230Z,36.18
2023-11-09T06:27:17.264Z,35.80
2023-11-09T06:32:20.617Z,35.13
2023-11-09T06:37:23.907Z,35.71
2023-11-09T06:42:26.873Z,36.08
2023-11-09T06:47:28.774Z,35.05
2023-11-09T06:52:30.730Z,35.87
2023-11-09T06:57:32.620Z,34.09
2023-11-09T07:02:34.888Z,34.11
2023-11-09T07:07:37.707Z,34.98
2023-11-09T07:12:40.725Z,35.16
2023-11-09T07:17:44.384Z,36.54
2023-11-09T07:22:49.342Z,35.59
2023-11-09T07:27:51.332Z,34.72
2023-11-09T07:32:53.423Z,35.30
2023-11-09T07:37:55.270Z,36.36
2023-11-09T07:42:58.595Z,43.50
2023-11-09T07:48:00.691Z,44.12
2023-11-09T07:53:02.843Z,44.48
2023-11-09T07:58:05.581Z,46.52
2023-11-09T08:03:10.271Z,44.45
2023-11-09T08:08:12.179Z,41.58
2023-11-09T08:13:14.611Z,39.91
2023-11-09T08:18:16.539Z,39.58
2023-11-09T08:23:18.369Z,37.45
2023-11-09T08:28:20.231Z,38.73
2023-11-09T08:33:25.431Z,39.31
2023-11-09T08:38:29.341Z,42.09
2023-11-09T08:43:32.132Z,41.04
2023-11-09T08:48:34.197Z,41.13
2023-11-09T08:53:37.629Z,44.58
2023-11-09T08:58:41.345Z,43.06
2023-11-09T09:03:47.264Z,48.90
2023-11-09T09:08:49.484Z,49.90
2023-11-09T09:13:52.185Z,53.05
2023-11-09T09:18:54.320Z,54.32
2023-11-09T09:23:56.206Z,55.01
2023-11-09T09:28:57.981Z,54.50
2023-11-09T09:34:09.371Z,50.59
2023-11-09T09:39:15.480Z,52.85
2023-11-09T09:44:18.397Z,51.15
2023-11-09T09:49:20.293Z,49.92
2023-11-09T09:54:22.854Z,48.16
2023-11-09T09:59:24.811Z,47.76
2023-11-09T10:04:26.921Z,53.71
2023-11-09T10:09:29.617Z,49.70
2023-11-09T10:14:33.905Z,49.56
2023-11-09T10:19:45.329Z,48.72
2023-11-09T10:24:50.510Z,52.42
2023-11-09T10:29:55.007Z,50.44
2023-11-09T10:34:56.864Z,52.93
2023-11-09T10:39:59.014Z,53.08
2023-11-09T10:45:04.068Z,54.13
2023-11-09T10:50:16.016Z,57.09
2023-11-09T10:55:20.602Z,56.07
2023-11-09T11:00:32.535Z,66.17
2023-11-09T11:05:41.940Z,58.78
2023-11-09T11:10:52.547Z,53.75
2023-11-09T11:16:05.117Z,55.90
2023-11-09T11:21:31.136Z,57.41
2023-11-09T11:27:06.109Z,58.25
2023-11-09T11:32:23.430Z,62.16
2023-11-09T11:37:32.598Z,63.29
2023-11-09T11:42:35.881Z,60.24
2023-11-09T11:47:37.949Z,60.17
2023-11-09T11:52:39.918Z,66.53
2023-11-09T11:58:05.231Z,68.02
2023-11-09T12:03:14.371Z,69.53
2023-11-09T12:08:17.897Z,67.65
2023-11-09T12:13:22.805Z,66.61
2023-11-09T12:18:26.445Z,58.92
2023-11-09T12:23:32.102Z,58.36
2023-11-09T12:28:34.565Z,55.65
2023-11-09T12:33:36.584Z,59.91
2023-11-09T12:38:40.783Z,57.63
2023-11-09T12:43:44.207Z,57.85
2023-11-09T12:48:53.395Z,54.90
2023-11-09T12:53:58.937Z,53.42
2023-11-09T12:59:01.168Z,52.19
2023-11-09T13:04:03.398Z,52.76
2023-11-09T13:09:30.812Z,50.85
2023-11-09T13:14:38.038Z,50.59
2023-11-09T13:19:46.387Z,49.85
2023-11-09T13:24:54.662Z,52.35
2023-11-09T13:29:57.313Z,54.36
2023-11-09T13:35:22.237Z,50.13
2023-11-09T13:40:24.050Z,51.08
2023-11-09T13:45:36.388Z,50.74
2023-11-09T13:50:38.686Z,48.90
2023-11-09T13:55:54.580Z,46.84
2023-11-09T14:01:01.620Z,46.09
2023-11-09T14:06:04.143Z,46.93
2023-11-09T14:11:10.796Z,48.80
2023-11-09T14:16:24.506Z,48.60
2023-11-09T14:21:33.766Z,50.53
2023-11-09T14:26:35.635Z,49.39
2023-11-09T14:31:38.045Z,49.28
2023-11-09T14:36:43.399Z,48.28
2023-11-09T14:41:45.157Z,46.65
2023-11-09T14:46:47.003Z,46.82
2023-11-09T14:51:49.645Z,48.57
2023-11-09T14:56:51.516Z,50.36
2023-11-09T15:01:53.851Z,49.23
2023-11-09T15:06:55.784Z,49.03
2023-11-09T15:11:57.729Z,50.18
2023-11-09T15:16:59.832Z,49.26
2023-11-09T15:22:02.146Z,49.27
2023-11-09T15:27:07.670Z,48.52
2023-11-09T15:32:15.244Z,49.35
2023-11-09T15:37:17.021Z,50.68
2023-11-09T15:42:19.145Z,48.73
2023-11-09T15:47:20.899Z,51.48
2023-11-09T15:52:22.681Z,52.23
2023-11-09T15:57:24.492Z,51.62
2023-11-09T16:02:26.466Z,56.78
2023-11-09T16:07:29.245Z,55.91
2023-11-09T16:12:31.529Z,59.17
2023-11-09T16:17:34.575Z,54.45
2023-11-09T16:22:36.532Z,53.72
2023-11-09T16:27:39.916Z,56.72
2023-11-09T16:32:41.737Z,55.50
2023-11-09T16:37:45.060Z,55.67
2023-11-09T16:42:47.545Z,54.96
2023-11-09T16:47:49.521Z,56.09
2023-11-09T16:52:51.853Z,54.30
2023-11-09T16:57:53.654Z,55.44
2023-11-09T17:02:56.428Z,54.81
2023-11-09T17:07:58.365Z,53.17
2023-11-09T17:13:00.213Z,55.42
2023-11-09T17:18:02.138Z,52.58
2023-11-09T17:23:04.124Z,52.28
2023-11-09T17:28:06.064Z,59.33
2023-11-09T17:33:16.284Z,55.74
2023-11-09T17:38:19.826Z,51.36
2023-11-09T17:43:22.043Z,47.89
2023-11-09T17:48:24.087Z,49.67
2023-11-09T17:53:26.633Z,49.99
2023-11-09T17:58:28.545Z,50.67
2023-11-09T18:03:30.497Z,50.77
2023-11-09T18:08:32.316Z,50.45
2023-11-09T18:13:34.531Z,48.43
2023-11-09T18:18:37.009Z,49.24
2023-11-09T18:23:39.080Z,48.10
2023-11-09T18:28:41.777Z,52.69
2023-11-09T18:33:44.926Z,48.43
2023-11-09T18:38:46.693Z,49.21
2023-11-09T18:43:48.760Z,48.41
2023-11-09T18:48:50.661Z,47.36
2023-11-09T18:53:52.666Z,47.63
2023-11-09T18:58:54.523Z,46.68
2023-11-09T19:09:01.140Z,46.67
2023-11-09T19:14:03.374Z,47.13
2023-11-09T19:19:05.544Z,46.21
2023-11-09T19:24:07.753Z,45.49
2023-11-09T19:29:15.292Z,45.46
2023-11-09T19:34:17.524Z,44.92
2023-11-09T19:39:19.362Z,44.86
2023-11-09T19:44:21.311Z,44.57
2023-11-09T19:49:23.096Z,45.19
2023-11-09T19:54:25.333Z,44.47
2023-11-09T19:59:28.879Z,44.54
2023-11-09T20:04:30.804Z,44.64
2023-11-09T20:09:33.013Z,43.27
2023-11-09T20:14:35.138Z,44.43
2023-11-09T20:19:36.966Z,44.24
2023-11-09T20:24:38.868Z,44.29
2023-11-09T20:29:41.041Z,48.79
2023-11-09T20:34:44.908Z,47.17
2023-11-09T20:39:47.244Z,49.28
2023-11-09T20:44:50.199Z,49.40
2023-11-09T20:49:54.049Z,47.76
2023-11-09T20:54:56.886Z,47.15
2023-11-09T20:59:58.828Z,45.72
2023-11-09T21:05:05.869Z,45.54
2023-11-09T21:10:09.126Z,46.88
2023-11-09T21:15:12.144Z,45.75
2023-11-09T21:20:17.790Z,46.01
2023-11-09T21:25:20.147Z,46.21
2023-11-09T21:30:22.031Z,44.85
2023-11-09T21:35:31.526Z,45.14
2023-11-09T21:40:33.908Z,44.72
2023-11-09T21:45:35.894Z,45.04
2023-11-09T21:50:37.795Z,44.33
2023-11-09T21:55:40.756Z,44.50
2023-11-09T22:00:42.549Z,44.11
2023-11-09T22:05:44.466Z,45.07
2023-11-09T22:10:46.531Z,43.80
2023-11-09T22:15:48.402Z,44.10
2023-11-09T22:20:50.199Z,43.67
2023-11-09T22:25:52.121Z,47.51
2023-11-09T22:30:54.237Z,48.24
2023-11-09T22:35:56.034Z,47.21
2023-11-09T22:40:57.903Z,47.10
2023-11-09T22:46:00.825Z,44.65
2023-11-09T22:51:02.840Z,43.92
2023-11-09T22:56:06.635Z,44.39
2023-11-09T23:01:08.458Z,49.51
2023-11-09T23:06:12.993Z,49.44
2023-11-09T23:11:15.893Z,48.41
2023-11-09T23:16:19.288Z,50.00
2023-11-09T23:21:21.264Z,50.37
2023-11-09T23:26:23.249Z,50.87
2023-11-09T23:31:25.121Z,51.19
2023-11-09T23:36:27.044Z,56.00
2023-11-09T23:41:28.924Z,48.75
2023-11-09T23:46:30.774Z,46.13
2023-11-09T23:51:32.724Z,46.37
2023-11-09T23:56:34.618Z,45.79
